Padre Island — WDB4436 — position and weather

sailwx.info

Track history (hours):
 
Tides and Currents Weather Stations Pressure Air Temp Water Temp Dewpoint Dewpoint Depression Visibility Wind Speed Wind Dir Waves Ship Positions

Padre Island

Owner: Great Lakes Dredge & Dock Company, Oak Brook, IL. More information available from US FCC via Universal Licensing System and Coast Guard Vessel Documentation Center.

Last reported at 2015-Aug-20 05:32 UTC. Time now 2015-Aug-29 19:00 UTC.
Position N 25°15' W 080°05'.
Warning: this ship's position is 9 days out of date.

Length 86 m; draft 19.6 m.

Type: Dredging. MMSI: 367525000.

Date/timePositionNaut miles runAvg speedWind from/ knotsBaromVisibWave heightAir tempDewpointWater temp
2015-Aug-20 05:32N 25°15' W 080°05'9 9.6
2015-Aug-20 04:33N 25°24' W 080°01'9 9.4
2015-Aug-20 03:33N 25°34' W 080°01'9 8.7
2015-Aug-20 02:33N 25°42' W 080°01'8 7.7
2015-Aug-20 01:33N 25°50' W 079°59'7 7.3
2015-Aug-20 00:33N 25°57' W 079°59'7 6.9
2015-Aug-19 23:33N 26°04' W 079°58'7 6.9
2015-Aug-19 22:33N 26°11' W 079°58'7 6.8
2015-Aug-19 21:33N 26°18' W 079°57'7 7.0
2015-Aug-19 20:33N 26°25' W 079°57'8 7.6
2015-Aug-19 19:33N 26°32' W 079°56'8 8.0
2015-Aug-19 18:33N 26°40' W 079°56'  
2015-Aug-17 13:33N 33°03' W 077°50'1110.7
2015-Aug-17 12:31N 33°11' W 077°40'2110.7
2015-Aug-17 10:33N 33°25' W 077°21'7710.9
2015-Aug-17 03:29N 34°15' W 076°11'1010.3
2015-Aug-17 02:33N 34°22' W 076°03'10 9.9
2015-Aug-17 01:33N 34°28' W 075°54'10 9.6
2015-Aug-17 00:33N 34°35' W 075°45'10 9.5
2015-Aug-16 23:32N 34°41' W 075°36'19710.3
2015-Aug-16 04:26N 37°54' W 074°46'2410.8
2015-Aug-16 02:11N 38°19' W 074°45'711.0
2015-Aug-16 01:32N 38°26' W 074°45'1010.7
2015-Aug-16 00:33N 38°35' W 074°52'1010.4
2015-Aug-15 23:33N 38°43' W 074°60'1010.4
2015-Aug-15 22:33N 38°53' W 075°06'3 2.6
2015-Aug-15 21:31N 38°54' W 075°09'0 0.1
2015-Aug-15 20:31N 38°54' W 075°09'0 0.2
2015-Aug-15 19:33N 38°54' W 075°09'9 9.0
2015-Aug-15 18:33N 38°48' W 074°60'9 8.7
2015-Aug-15 17:33N 38°51' W 074°49'4110.3
2015-Aug-15 13:33N 39°24' W 074°17'9 9.2
2015-Aug-15 12:33N 39°32' W 074°11'6 6.1
2015-Aug-15 11:33N 39°38' W 074°09'5 4.5
2015-Aug-15 10:33N 39°34' W 074°13'0 0.0
2015-Aug-15 09:33N 39°34' W 074°13'8 7.8
2015-Aug-15 08:33N 39°40' W 074°06'1 0.8
2015-Aug-15 07:33N 39°40' W 074°05'9 8.6
2015-Aug-15 06:33N 39°34' W 074°13'0 0.0
2015-Aug-15 05:33N 39°34' W 074°13'6 5.7
2015-Aug-15 04:33N 39°38' W 074°08'4 3.6
2015-Aug-15 03:33N 39°41' W 074°04'9 9.3
2015-Aug-15 02:33N 39°34' W 074°13'0 0.1
2015-Aug-15 01:33N 39°34' W 074°13'5 4.8
2015-Aug-15 00:33N 39°37' W 074°08'5 4.8
2015-Aug-14 23:33N 39°41' W 074°04'6 5.7
2015-Aug-14 22:33N 39°37' W 074°09'4 3.9
2015-Aug-14 21:33N 39°34' W 074°13'1 1.4
2015-Aug-14 20:33N 39°35' W 074°12'8 8.2
2015-Aug-14 19:33N 39°41' W 074°04'1 1.3
2015-Aug-14 18:33N 39°40' W 074°05'8 8.2
2015-Aug-14 17:32N 39°34' W 074°13'0 0.1
2015-Aug-14 16:33N 39°34' W 074°13'5 4.6
2015-Aug-14 15:32N 39°37' W 074°09'5 4.9
2015-Aug-14 14:32N 39°41' W 074°04'6 5.7
2015-Aug-14 13:33N 39°37' W 074°09'4 4.0
2015-Aug-14 12:33N 39°34' W 074°13'1 1.3
2015-Aug-14 11:33N 39°35' W 074°12'9 8.7
2015-Aug-14 10:34N 39°41' W 074°04'1 0.6
2015-Aug-14 09:33N 39°41' W 074°04'9 9.2
2015-Aug-14 08:33N 39°34' W 074°13'0 0.0
2015-Aug-14 07:33N 39°34' W 074°13'4 4.2
2015-Aug-14 06:33N 39°37' W 074°09'6 5.6
2015-Aug-14 05:33N 39°41' W 074°04'7 6.8
2015-Aug-14 04:33N 39°36' W 074°10'3 2.8
2015-Aug-14 03:33N 39°34' W 074°13'1 0.9
2015-Aug-14 02:33N 39°35' W 074°12'9 8.7
2015-Aug-14 01:33N 39°41' W 074°04'1 0.5
2015-Aug-14 00:33N 39°41' W 074°05'9 8.5
2015-Aug-13 23:30N 39°34' W 074°13'0 0.0
2015-Aug-13 22:31N 39°34' W 074°13'6 6.7
2015-Aug-13 21:33N 39°39' W 074°07'3 3.5
2015-Aug-13 20:33N 39°41' W 074°04'10 9.9
2015-Aug-13 19:33N 39°34' W 074°13'0 0.0
2015-Aug-13 18:33N 39°34' W 074°13'5 5.1
2015-Aug-13 17:32N 39°38' W 074°08'5 4.7
2015-Aug-13 16:33N 39°41' W 074°04'8 7.7
2015-Aug-13 15:33N 39°36' W 074°11'2 2.2
2015-Aug-13 14:33N 39°34' W 074°13'1 1.3
2015-Aug-13 13:33N 39°35' W 074°12'8 6.3
2015-Aug-13 12:13N 39°41' W 074°04'10 5.5
2015-Aug-13 10:28N 39°34' W 074°13'0 0.0
2015-Aug-13 09:33N 39°34' W 074°13'6 5.7
2015-Aug-13 08:33N 39°38' W 074°08'4 4.3
2015-Aug-13 07:33N 39°41' W 074°04'9 9.1
2015-Aug-13 06:33N 39°35' W 074°12'1 0.8
2015-Aug-13 05:33N 39°34' W 074°13'3 3.2
2015-Aug-13 04:33N 39°36' W 074°10'6 6.4
2015-Aug-13 03:33N 39°41' W 074°04'5 5.0
2015-Aug-13 02:33N 39°37' W 074°09'5 4.5
2015-Aug-13 01:33N 39°34' W 074°13'1 1.4
2015-Aug-13 00:33N 39°35' W 074°12'9 8.6
2015-Aug-12 23:33N 39°41' W 074°04'1 0.7
2015-Aug-12 22:33N 39°41' W 074°04'9 9.2
2015-Aug-12 21:33N 39°34' W 074°13'0 0.0
2015-Aug-12 20:33N 39°34' W 074°13'6 5.5
2015-Aug-12 19:33N 39°38' W 074°08'4 4.3
2015-Aug-12 18:33N 39°41' W 074°04'9 8.5
2015-Aug-12 17:33N 39°35' W 074°12'1 1.4
2015-Aug-12 16:33N 39°34' W 074°13'4 3.9
2015-Aug-12 15:32N 39°37' W 074°09'6 5.8
2015-Aug-12 14:33N 39°41' W 074°04'4 4.1
2015-Aug-12 13:32N 39°38' W 074°08'6 5.7
2015-Aug-12 12:33N 39°34' W 074°13'0 0.1
2015-Aug-12 11:33N 39°34' W 074°13'6 6.0
2015-Aug-12 10:33N 39°38' W 074°08'4 3.8
2015-Aug-12 09:33N 39°41' W 074°04'5 5.1
2015-Aug-12 08:33N 39°37' W 074°09'5 4.6
2015-Aug-12 07:33N 39°34' W 074°13'0 0.1
2015-Aug-12 06:33N 39°34' W 074°13'7 7.0
2015-Aug-12 05:33N 39°39' W 074°07'2 2.2
2015-Aug-12 04:33N 39°41' W 074°04'9 9.3
2015-Aug-12 03:33N 39°34' W 074°13'0 0.1
2015-Aug-12 02:33N 39°34' W 074°13'5 5.0
2015-Aug-12 01:33N 39°38' W 074°08'5 4.7
2015-Aug-12 00:33N 39°41' W 074°04'4 4.0
2015-Aug-11 23:33N 39°38' W 074°08'6 5.5
2015-Aug-11 22:32N 39°34' W 074°13'0 0.1
2015-Aug-11 21:33N 39°34' W 074°13'8 7.8
2015-Aug-11 20:32N 39°40' W 074°06'2 1.7
2015-Aug-11 19:33N 39°41' W 074°04'6 6.2
2015-Aug-11 18:33N 39°36' W 074°09'4 3.5
2015-Aug-11 17:33N 39°34' W 074°13'2 1.9
2015-Aug-11 16:33N 39°35' W 074°11'8 7.8
2015-Aug-11 15:33N 39°41' W 074°04'1 1.2
2015-Aug-11 14:33N 39°40' W 074°05'8 8.4
2015-Aug-11 13:33N 39°34' W 074°13'0 0.0
2015-Aug-11 12:33N 39°34' W 074°13'6 5.6
2015-Aug-11 11:33N 39°38' W 074°08'4 4.0
2015-Aug-11 10:33N 39°41' W 074°04'6 5.7
2015-Aug-11 09:33N 39°37' W 074°09'4 4.0
2015-Aug-11 08:33N 39°34' W 074°13'0 0.5
2015-Aug-11 07:33N 39°34' W 074°13'9 8.6
2015-Aug-11 06:32N 39°41' W 074°05'2 1.6
2015-Aug-11 05:33N 39°39' W 074°06'7 3.7
2015-Aug-11 03:32N 39°34' W 074°13'6 5.8
2015-Aug-11 02:33N 39°38' W 074°08'4 3.8
2015-Aug-11 01:32N 39°41' W 074°04'7 6.9
2015-Aug-11 00:33N 39°36' W 074°10'3 2.8
2015-Aug-10 23:33N 39°34' W 074°13'2 2.2
2015-Aug-10 22:33N 39°36' W 074°11'8 7.6
2015-Aug-10 21:33N 39°41' W 074°04'0 0.5
2015-Aug-10 20:33N 39°41' W 074°04'8 8.5
2015-Aug-10 19:33N 39°35' W 074°12'1 1.0
2015-Aug-10 18:32N 39°34' W 074°13'0 0.1
2015-Aug-10 17:34N 39°34' W 074°13'8 8.2
2015-Aug-10 16:33N 39°40' W 074°05'0 0.4
2015-Aug-10 15:33N 39°40' W 074°05'9 8.7
2015-Aug-10 14:33N 39°34' W 074°13'0 0.0
2015-Aug-10 13:33N 39°34' W 074°13'2 1.8
2015-Aug-10 12:33N 39°35' W 074°11'2 1.4
2015-Aug-10 11:19N 39°34' W 074°13'2 3.1
2015-Aug-10 10:33N 39°36' W 074°11'7 7.4
2015-Aug-10 09:33N 39°41' W 074°04'7 6.8
2015-Aug-10 08:33N 39°35' W 074°08'  
Track history (hours):
 
Tides and Currents Weather Stations Pressure Air Temp Water Temp Dewpoint Dewpoint Depression Visibility Wind Speed Wind Dir Waves Ship Positions

Padre Island

Owner: Great Lakes Dredge & Dock Company, Oak Brook, IL. More information available from US FCC via Universal Licensing System and Coast Guard Vessel Documentation Center.

Last reported at 2015-Aug-20 05:32 UTC. Time now 2015-Aug-29 19:00 UTC.
Position N 25°15' W 080°05'.
Warning: this ship's position is 9 days out of date.

Length 86 m; draft 19.6 m.

Type: Dredging. MMSI: 367525000.

Date/timePositionNaut miles runAvg speedWind from/ knotsBaromVisibWave heightAir tempDewpointWater temp
2015-Aug-20 05:32N 25°15' W 080°05'9 9.6
2015-Aug-20 04:33N 25°24' W 080°01'9 9.4
2015-Aug-20 03:33N 25°34' W 080°01'9 8.7
2015-Aug-20 02:33N 25°42' W 080°01'8 7.7
2015-Aug-20 01:33N 25°50' W 079°59'7 7.3
2015-Aug-20 00:33N 25°57' W 079°59'7 6.9
2015-Aug-19 23:33N 26°04' W 079°58'7 6.9
2015-Aug-19 22:33N 26°11' W 079°58'7 6.8
2015-Aug-19 21:33N 26°18' W 079°57'7 7.0
2015-Aug-19 20:33N 26°25' W 079°57'8 7.6
2015-Aug-19 19:33N 26°32' W 079°56'8 8.0
2015-Aug-19 18:33N 26°40' W 079°56'  
2015-Aug-17 13:33N 33°03' W 077°50'1110.7
2015-Aug-17 12:31N 33°11' W 077°40'2110.7
2015-Aug-17 10:33N 33°25' W 077°21'7710.9
2015-Aug-17 03:29N 34°15' W 076°11'1010.3
2015-Aug-17 02:33N 34°22' W 076°03'10 9.9
2015-Aug-17 01:33N 34°28' W 075°54'10 9.6
2015-Aug-17 00:33N 34°35' W 075°45'10 9.5
2015-Aug-16 23:32N 34°41' W 075°36'19710.3
2015-Aug-16 04:26N 37°54' W 074°46'2410.8
2015-Aug-16 02:11N 38°19' W 074°45'711.0
2015-Aug-16 01:32N 38°26' W 074°45'1010.7
2015-Aug-16 00:33N 38°35' W 074°52'1010.4
2015-Aug-15 23:33N 38°43' W 074°60'1010.4
2015-Aug-15 22:33N 38°53' W 075°06'3 2.6
2015-Aug-15 21:31N 38°54' W 075°09'0 0.1
2015-Aug-15 20:31N 38°54' W 075°09'0 0.2
2015-Aug-15 19:33N 38°54' W 075°09'9 9.0
2015-Aug-15 18:33N 38°48' W 074°60'9 8.7
2015-Aug-15 17:33N 38°51' W 074°49'4110.3
2015-Aug-15 13:33N 39°24' W 074°17'9 9.2
2015-Aug-15 12:33N 39°32' W 074°11'6 6.1
2015-Aug-15 11:33N 39°38' W 074°09'5 4.5
2015-Aug-15 10:33N 39°34' W 074°13'0 0.0
2015-Aug-15 09:33N 39°34' W 074°13'8 7.8
2015-Aug-15 08:33N 39°40' W 074°06'1 0.8
2015-Aug-15 07:33N 39°40' W 074°05'9 8.6
2015-Aug-15 06:33N 39°34' W 074°13'0 0.0
2015-Aug-15 05:33N 39°34' W 074°13'6 5.7
2015-Aug-15 04:33N 39°38' W 074°08'4 3.6
2015-Aug-15 03:33N 39°41' W 074°04'9 9.3
2015-Aug-15 02:33N 39°34' W 074°13'0 0.1
2015-Aug-15 01:33N 39°34' W 074°13'5 4.8
2015-Aug-15 00:33N 39°37' W 074°08'5 4.8
2015-Aug-14 23:33N 39°41' W 074°04'6 5.7
2015-Aug-14 22:33N 39°37' W 074°09'4 3.9
2015-Aug-14 21:33N 39°34' W 074°13'1 1.4
2015-Aug-14 20:33N 39°35' W 074°12'8 8.2
2015-Aug-14 19:33N 39°41' W 074°04'1 1.3
2015-Aug-14 18:33N 39°40' W 074°05'8 8.2
2015-Aug-14 17:32N 39°34' W 074°13'0 0.1
2015-Aug-14 16:33N 39°34' W 074°13'5 4.6
2015-Aug-14 15:32N 39°37' W 074°09'5 4.9
2015-Aug-14 14:32N 39°41' W 074°04'6 5.7
2015-Aug-14 13:33N 39°37' W 074°09'4 4.0
2015-Aug-14 12:33N 39°34' W 074°13'1 1.3
2015-Aug-14 11:33N 39°35' W 074°12'9 8.7
2015-Aug-14 10:34N 39°41' W 074°04'1 0.6
2015-Aug-14 09:33N 39°41' W 074°04'9 9.2
2015-Aug-14 08:33N 39°34' W 074°13'0 0.0
2015-Aug-14 07:33N 39°34' W 074°13'4 4.2
2015-Aug-14 06:33N 39°37' W 074°09'6 5.6
2015-Aug-14 05:33N 39°41' W 074°04'7 6.8
2015-Aug-14 04:33N 39°36' W 074°10'3 2.8
2015-Aug-14 03:33N 39°34' W 074°13'1 0.9
2015-Aug-14 02:33N 39°35' W 074°12'9 8.7
2015-Aug-14 01:33N 39°41' W 074°04'1 0.5
2015-Aug-14 00:33N 39°41' W 074°05'9 8.5
2015-Aug-13 23:30N 39°34' W 074°13'0 0.0
2015-Aug-13 22:31N 39°34' W 074°13'6 6.7
2015-Aug-13 21:33N 39°39' W 074°07'3 3.5
2015-Aug-13 20:33N 39°41' W 074°04'10 9.9
2015-Aug-13 19:33N 39°34' W 074°13'0 0.0
2015-Aug-13 18:33N 39°34' W 074°13'5 5.1
2015-Aug-13 17:32N 39°38' W 074°08'5 4.7
2015-Aug-13 16:33N 39°41' W 074°04'8 7.7
2015-Aug-13 15:33N 39°36' W 074°11'2 2.2
2015-Aug-13 14:33N 39°34' W 074°13'1 1.3
2015-Aug-13 13:33N 39°35' W 074°12'8 6.3
2015-Aug-13 12:13N 39°41' W 074°04'10 5.5
2015-Aug-13 10:28N 39°34' W 074°13'0 0.0
2015-Aug-13 09:33N 39°34' W 074°13'6 5.7
2015-Aug-13 08:33N 39°38' W 074°08'4 4.3
2015-Aug-13 07:33N 39°41' W 074°04'9 9.1
2015-Aug-13 06:33N 39°35' W 074°12'1 0.8
2015-Aug-13 05:33N 39°34' W 074°13'3 3.2
2015-Aug-13 04:33N 39°36' W 074°10'6 6.4
2015-Aug-13 03:33N 39°41' W 074°04'5 5.0
2015-Aug-13 02:33N 39°37' W 074°09'5 4.5
2015-Aug-13 01:33N 39°34' W 074°13'1 1.4
2015-Aug-13 00:33N 39°35' W 074°12'9 8.6
2015-Aug-12 23:33N 39°41' W 074°04'1 0.7
2015-Aug-12 22:33N 39°41' W 074°04'9 9.2
2015-Aug-12 21:33N 39°34' W 074°13'0 0.0
2015-Aug-12 20:33N 39°34' W 074°13'6 5.5
2015-Aug-12 19:33N 39°38' W 074°08'4 4.3
2015-Aug-12 18:33N 39°41' W 074°04'9 8.5
2015-Aug-12 17:33N 39°35' W 074°12'1 1.4
2015-Aug-12 16:33N 39°34' W 074°13'4 3.9
2015-Aug-12 15:32N 39°37' W 074°09'6 5.8
2015-Aug-12 14:33N 39°41' W 074°04'4 4.1
2015-Aug-12 13:32N 39°38' W 074°08'6 5.7
2015-Aug-12 12:33N 39°34' W 074°13'0 0.1
2015-Aug-12 11:33N 39°34' W 074°13'6 6.0
2015-Aug-12 10:33N 39°38' W 074°08'4 3.8
2015-Aug-12 09:33N 39°41' W 074°04'5 5.1
2015-Aug-12 08:33N 39°37' W 074°09'5 4.6
2015-Aug-12 07:33N 39°34' W 074°13'0 0.1
2015-Aug-12 06:33N 39°34' W 074°13'7 7.0
2015-Aug-12 05:33N 39°39' W 074°07'2 2.2
2015-Aug-12 04:33N 39°41' W 074°04'9 9.3
2015-Aug-12 03:33N 39°34' W 074°13'0 0.1
2015-Aug-12 02:33N 39°34' W 074°13'5 5.0
2015-Aug-12 01:33N 39°38' W 074°08'5 4.7
2015-Aug-12 00:33N 39°41' W 074°04'4 4.0
2015-Aug-11 23:33N 39°38' W 074°08'6 5.5
2015-Aug-11 22:32N 39°34' W 074°13'0 0.1
2015-Aug-11 21:33N 39°34' W 074°13'8 7.8
2015-Aug-11 20:32N 39°40' W 074°06'2 1.7
2015-Aug-11 19:33N 39°41' W 074°04'6 6.2
2015-Aug-11 18:33N 39°36' W 074°09'4 3.5
2015-Aug-11 17:33N 39°34' W 074°13'2 1.9
2015-Aug-11 16:33N 39°35' W 074°11'8 7.8
2015-Aug-11 15:33N 39°41' W 074°04'1 1.2
2015-Aug-11 14:33N 39°40' W 074°05'8 8.4
2015-Aug-11 13:33N 39°34' W 074°13'0 0.0
2015-Aug-11 12:33N 39°34' W 074°13'6 5.6
2015-Aug-11 11:33N 39°38' W 074°08'4 4.0
2015-Aug-11 10:33N 39°41' W 074°04'6 5.7
2015-Aug-11 09:33N 39°37' W 074°09'4 4.0
2015-Aug-11 08:33N 39°34' W 074°13'0 0.5
2015-Aug-11 07:33N 39°34' W 074°13'9 8.6
2015-Aug-11 06:32N 39°41' W 074°05'2 1.6
2015-Aug-11 05:33N 39°39' W 074°06'7 3.7
2015-Aug-11 03:32N 39°34' W 074°13'6 5.8
2015-Aug-11 02:33N 39°38' W 074°08'4 3.8
2015-Aug-11 01:32N 39°41' W 074°04'7 6.9
2015-Aug-11 00:33N 39°36' W 074°10'3 2.8
2015-Aug-10 23:33N 39°34' W 074°13'2 2.2
2015-Aug-10 22:33N 39°36' W 074°11'8 7.6
2015-Aug-10 21:33N 39°41' W 074°04'0 0.5
2015-Aug-10 20:33N 39°41' W 074°04'8 8.5
2015-Aug-10 19:33N 39°35' W 074°12'1 1.0
2015-Aug-10 18:32N 39°34' W 074°13'0 0.1
2015-Aug-10 17:34N 39°34' W 074°13'8 8.2
2015-Aug-10 16:33N 39°40' W 074°05'0 0.4
2015-Aug-10 15:33N 39°40' W 074°05'9 8.7
2015-Aug-10 14:33N 39°34' W 074°13'0 0.0
2015-Aug-10 13:33N 39°34' W 074°13'2 1.8
2015-Aug-10 12:33N 39°35' W 074°11'2 1.4
2015-Aug-10 11:19N 39°34' W 074°13'2 3.1
2015-Aug-10 10:33N 39°36' W 074°11'7 7.4
2015-Aug-10 09:33N 39°41' W 074°04'7 6.8
2015-Aug-10 08:33N 39°35' W 074°08'  

Dump ship's entire track history